Klodzko, Poland

6:56 AM CET on November 23, 2014 (GMT +0100)
Dzierżoniów | Change Station
CLOSE
Current Station
Personal Weather Station
Location: Dzierżoniów, WOJEWóDZTWO DOLNOśLąSKIE
Elevation: 876 ft
Nearby Weather Stations

Elev 876 ft 50.74 °N, 16.65 °E | Updated 35 minutes ago

Clear
Clear
33.1 °F
Feels Like 33 °F
N
0.0
Wind Variable Wind from North
Gusts 0.0 mph

Today
High -- | Low -- °F
--% Chance of Precip.
Yesterday
High -- | Low -- °F
Precip. -- in
7:20 AM 3:59 PM
New Moon, 1% visible
Pressure 30.30 in
Visibility -9999.0 miles
Clouds
Windchill 33 °F
Dew Point 30 °F
Humidity 87%
Rainfall 0.00 in
Snow Depth Not available.
UV Not available.
Pollen Not available.
Air Quality Not available.
Flu Activity Not available.
METAR EPWR 230530Z 14006KT CAVOK 04/02 Q1026

More Conditions Fewer Conditions

Pressure 30.30 in
Visibility -9999.0 miles
Clouds
Windchill 33 °F
Dew Point 30 °F
Humidity 87%
Rainfall 0.00 in
Snow Depth Not available.
UV Not available.
Pollen Not available.
Air Quality Not available.
Flu Activity Not available.
METAR EPWR 230530Z 14006KT CAVOK 04/02 Q1026

More Conditions Fewer Conditions

10-Day Weather Forecast

Almanac

Astronomy

Nov. 23, 2014 Rise Set
Actual Time
Civil Twilight
Nautical Twilight
Astronomical Twilight
Moon
Length of Visible Light
Length of Day
Tomorrow will be .
, % of the Moon is Illuminated

Today's Extremes

Country Highs Country Lows

Community

WunderPhotos

Upload Photos

1,773,017 photos uploaded!

WunderBlogs® & News

Nearby

Air Quality

  Air Quality AQ Index Pollutant
Not available.

Snow Depth

Station Depth Elevation

Earthquake Activity

City Distance Mag. Time & Date
Minimum magnitude displayed is 2.5.

Coastal Water Temperatures

Place Temperature

Nearby Weather Stations